^^
Saratoga-Weather Station Historical Data
Daily Summary for August 1, 2020 Units:  Metric    English   Both
Daily Weekly Monthly Yearly Custom
  High: Low: Average:
Temperature: 33.6 °C 19.3 °C 26 °C
Dew Point: 21.6 °C 13 °C 17.6 °C
Humidity: 94% 39% 62%
Wind Speed: 20.9km/h 0km/h 4.3km/h
Wind Gust: 24.1km/h - -
Wind- - WSW
Pressure: 1013.5 hPa 1011.5 hPa -
Precipitation: 5.8 mm    
Historical Graphs
 
 
Tabular Data for August 1, 2020
Time Temperature Dew Point Pressure Wind Wind Speed Wind Gust Humidity Rainfall Rate (Hourly) solar
00:04 23.6 °C 13.2 °C 1011.9 hPa Calm     52% 0.0 mm 0 W/m2
00:09 23.4 °C 13 °C 1011.9 hPa Calm     52% 0.0 mm 0 W/m2
00:14 23.3 °C 13.2 °C 1011.9 hPa Calm     53% 0.0 mm 0 W/m2
00:19 23.2 °C 13.1 °C 1012.2 hPa Calm   1.6 km/h 53% 0.0 mm 0 W/m2
00:24 23.2 °C 13.4 °C 1012.2 hPa Calm     54% 0.0 mm 0 W/m2
00:29 23.2 °C 13.7 °C 1012.2 hPa Calm     55% 0.0 mm 0 W/m2
00:34 23.1 °C 13.3 °C 1012.2 hPa Calm     54% 0.0 mm 0 W/m2
00:39 23 °C 13.5 °C 1011.9 hPa Calm     55% 0.0 mm 0 W/m2
00:44 22.9 °C 13.1 °C 1012.2 hPa Calm     54% 0.0 mm 0 W/m2
00:49 22.8 °C 13.3 °C 1012.2 hPa Calm     55% 0.0 mm 0 W/m2
00:54 22.7 °C 13.5 °C 1012.2 hPa Calm     56% 0.0 mm 0 W/m2
00:59 22.7 °C 13.5 °C 1012.2 hPa Calm     56% 0.0 mm 0 W/m2
01:04 22.7 °C 13.5 °C 1012.2 hPa Calm     56% 0.0 mm 0 W/m2
01:09 22.6 °C 13.1 °C 1012.2 hPa Calm     55% 0.0 mm 0 W/m2
01:15 22.6 °C 13.4 °C 1012.2 hPa Calm     56% 0.0 mm 0 W/m2
01:20 22.6 °C 13.4 °C 1012.2 hPa Calm     56% 0.0 mm 0 W/m2
01:25 22.5 °C 13.6 °C 1012.2 hPa Calm     57% 0.0 mm 0 W/m2
01:30 22.4 °C 13.5 °C 1012.2 hPa Calm     57% 0.0 mm 0 W/m2
01:35 22.4 °C 13.5 °C 1012.2 hPa Calm     57% 0.0 mm 0 W/m2
01:45 22.3 °C 13.4 °C 1012.2 hPa Calm     57% 0.0 mm 0 W/m2
01:50 22.2 °C 13.5 °C 1012.2 hPa Calm     58% 0.0 mm 0 W/m2
01:55 22.2 °C 13.5 °C 1012.2 hPa Calm     58% 0.0 mm 0 W/m2
02:00 22.2 °C 13.5 °C 1012.2 hPa Calm     58% 0.0 mm 0 W/m2
02:05 22.2 °C 13.5 °C 1012.2 hPa Calm     58% 0.0 mm 0 W/m2
02:10 22.3 °C 13.6 °C 1012.2 hPa Calm     58% 0.0 mm 0 W/m2
02:15 22.3 °C 13.6 °C 1012.2 hPa Calm     58% 0.0 mm 0 W/m2
02:20 22.4 °C 13.7 °C 1012.2 hPa Calm     58% 0.0 mm 0 W/m2
02:25 22.5 °C 13.8 °C 1012.2 hPa Calm     58% 0.0 mm 0 W/m2
02:30 22.6 °C 13.6 °C 1012.2 hPa SSE 1.4 km/h 1.6 km/h 57% 0.0 mm 0 W/m2
02:35 22.8 °C 13.6 °C 1012.5 hPa WSW 3.2 km/h 4.8 km/h 56% 0.0 mm 0 W/m2
02:40 23.1 °C 13.3 °C 1012.2 hPa Calm   4.8 km/h 54% 0.0 mm 0 W/m2
02:50 23.3 °C 13.5 °C 1012.2 hPa Calm   4.8 km/h 54% 0.0 mm 0 W/m2
02:55 23.3 °C 13.8 °C 1012.2 hPa WSW 1.4 km/h 1.6 km/h 55% 0.0 mm 0 W/m2
03:00 23.2 °C 13.7 °C 1012.5 hPa Calm     55% 0.0 mm 0 W/m2
03:05 23.2 °C 13.7 °C 1012.2 hPa Calm     55% 0.0 mm 0 W/m2
03:10 23 °C 13.7 °C 1012.5 hPa Calm     56% 0.0 mm 0 W/m2
03:15 22.8 °C 13.6 °C 1012.5 hPa Calm     56% 0.0 mm 0 W/m2
03:20 22.7 °C 13.5 °C 1012.2 hPa Calm   1.6 km/h 56% 0.0 mm 0 W/m2
03:25 22.6 °C 13.6 °C 1011.9 hPa WSW 1.4 km/h 1.6 km/h 57% 0.0 mm 0 W/m2
03:30 22.5 °C 13.6 °C 1011.9 hPa NW 1.4 km/h 4.8 km/h 57% 0.0 mm 0 W/m2
03:35 23.1 °C 13.8 °C 1011.9 hPa West 9.7 km/h 9.7 km/h 56% 0.0 mm 0 W/m2
03:40 24.7 °C 14.2 °C 1011.9 hPa WNW 7.9 km/h 19.3 km/h 52% 0.0 mm 0 W/m2
03:45 25.3 °C 14.4 °C 1011.9 hPa WNW 6.4 km/h 14.5 km/h 51% 0.0 mm 0 W/m2
03:50 25.7 °C 14.8 °C 1011.9 hPa West 9.7 km/h 14.5 km/h 51% 0.0 mm 0 W/m2
03:56 25.8 °C 14.9 °C 1011.9 hPa NW 7.9 km/h 11.3 km/h 51% 0.0 mm 0 W/m2
04:01 25.8 °C 14.9 °C 1011.9 hPa West 16.3 km/h 16.1 km/h 51% 0.0 mm 0 W/m2
04:06 25.8 °C 14.9 °C 1011.9 hPa SW 7.9 km/h 11.3 km/h 51% 0.0 mm 0 W/m2
04:16 25.7 °C 15.4 °C 1011.9 hPa West 3.2 km/h 9.7 km/h 53% 0.0 mm 0 W/m2
04:21 25.6 °C 15.6 °C 1011.9 hPa NNW 9.7 km/h 11.3 km/h 54% 0.0 mm 0 W/m2
04:26 25.8 °C 15.8 °C 1011.9 hPa West 1.4 km/h 8 km/h 54% 0.0 mm 0 W/m2
04:31 25.8 °C 15.8 °C 1011.9 hPa West 3.2 km/h 3.2 km/h 54% 0.0 mm 0 W/m2
04:36 25.6 °C 15.9 °C 1011.9 hPa WNW 3.2 km/h 4.8 km/h 55% 0.0 mm 0 W/m2
04:41 25.4 °C 15.7 °C 1011.5 hPa West 3.2 km/h 3.2 km/h 55% 0.0 mm 0 W/m2
04:46 25.4 °C 16 °C 1011.5 hPa West 4.7 km/h 8 km/h 56% 0.0 mm 0 W/m2
04:51 25.4 °C 15.7 °C 1011.5 hPa NW 3.2 km/h 14.5 km/h 55% 0.0 mm 0 W/m2
04:56 25.5 °C 15.8 °C 1011.5 hPa NNW 3.2 km/h 9.7 km/h 55% 0.0 mm 0 W/m2
05:01 25.5 °C 15.8 °C 1011.5 hPa West 3.2 km/h 14.5 km/h 55% 0.0 mm 0 W/m2
05:07 25.4 °C 16 °C 1011.9 hPa West 1.4 km/h 6.4 km/h 56% 0.0 mm 0 W/m2
05:12 25.6 °C 16.2 °C 1011.5 hPa West 4.7 km/h 14.5 km/h 56% 0.0 mm 0 W/m2
05:17 25.6 °C 16.4 °C 1011.9 hPa WNW 3.2 km/h 6.4 km/h 57% 0.0 mm 0 W/m2
05:22 25.6 °C 16.4 °C 1011.9 hPa WSW 4.7 km/h 12.9 km/h 57% 0.0 mm 0 W/m2
05:27 25.4 °C 17.1 °C 1012.2 hPa WNW 3.2 km/h 11.3 km/h 60% 0.0 mm 0 W/m2
05:32 25.3 °C 17 °C 1012.2 hPa West 3.2 km/h 4.8 km/h 60% 0.0 mm 0 W/m2
05:37 24.7 °C 18.4 °C 1012.5 hPa NW 6.4 km/h 12.9 km/h 68% 2.3 mm 0 W/m2
05:42 23.2 °C 18.5 °C 1011.9 hPa West 6.4 km/h 9.7 km/h 75% 5.1 mm 0 W/m2
05:47 22 °C 18.4 °C 1011.9 hPa West 3.2 km/h 11.3 km/h 80% 5.6 mm 0 W/m2
05:52 21.4 °C 18.4 °C 1011.9 hPa West 6.4 km/h 11.3 km/h 83% 5.8 mm 0 W/m2
05:57 21.2 °C 18.6 °C 1011.9 hPa WSW 7.9 km/h 11.3 km/h 85% 5.8 mm 0 W/m2
06:02 20.9 °C 18.5 °C 1012.2 hPa SSW 3.2 km/h 6.4 km/h 86% 5.8 mm 0 W/m2
06:07 20.7 °C 18.6 °C 1012.5 hPa SSE 4.7 km/h 6.4 km/h 88% 5.8 mm 0 W/m2
06:12 20.5 °C 18.6 °C 1012.9 hPa ESE 3.2 km/h 6.4 km/h 89% 5.8 mm 0 W/m2
06:17 20.4 °C 18.7 °C 1012.9 hPa Calm   1.6 km/h 90% 5.8 mm 0 W/m2
06:22 20.3 °C 18.8 °C 1012.9 hPa Calm   6.4 km/h 91% 5.8 mm 0 W/m2
06:27 20.2 °C 18.7 °C 1012.9 hPa SSW 3.2 km/h 4.8 km/h 91% 5.8 mm 0 W/m2
06:32 20.1 °C 18.8 °C 1012.9 hPa SSW 1.4 km/h 1.6 km/h 92% 5.8 mm 0 W/m2
06:37 19.9 °C 18.6 °C 1012.9 hPa Calm   4.8 km/h 92% 2.5 mm 0 W/m2
06:42 19.8 °C 18.5 °C 1012.5 hPa Calm   1.6 km/h 92% 0.5 mm 0 W/m2
06:47 19.7 °C 18.4 °C 1012.5 hPa SW 1.4 km/h 3.2 km/h 92% 0.2 mm 5 W/m2
06:52 19.6 °C 18.4 °C 1012.5 hPa SW 1.4 km/h 3.2 km/h 93% 0.0 mm 7 W/m2
06:57 19.4 °C 18.2 °C 1012.5 hPa SW 6.4 km/h 6.4 km/h 93% 0.0 mm 9 W/m2
07:02 19.4 °C 18.2 °C 1012.9 hPa SSW 1.4 km/h 4.8 km/h 93% 0.0 mm 12 W/m2
07:07 19.4 °C 18.2 °C 1012.9 hPa WSW 3.2 km/h 3.2 km/h 93% 0.0 mm 16 W/m2
07:12 19.3 °C 18.1 °C 1012.9 hPa WSW 1.4 km/h 4.8 km/h 93% 0.0 mm 21 W/m2
07:17 19.4 °C 18.4 °C 1012.9 hPa Calm   3.2 km/h 94% 0.0 mm 30 W/m2
07:23 19.4 °C 18.4 °C 1012.9 hPa SW 1.4 km/h 3.2 km/h 94% 0.0 mm 39 W/m2
07:28 19.6 °C 18.6 °C 1012.9 hPa West 1.4 km/h 4.8 km/h 94% 0.0 mm 60 W/m2
07:33 19.8 °C 18.6 °C 1013.2 hPa West 3.2 km/h 16.1 km/h 93% 0.0 mm 83 W/m2
07:38 20.4 °C 18.9 °C 1012.9 hPa WSW 1.4 km/h 6.4 km/h 91% 0.0 mm 95 W/m2
07:43 20.6 °C 18.9 °C 1012.9 hPa NW 3.2 km/h 6.4 km/h 90% 0.0 mm 90 W/m2
07:48 20.8 °C 18.9 °C 1012.9 hPa SW 1.4 km/h 3.2 km/h 89% 0.0 mm 88 W/m2
07:53 20.9 °C 19.2 °C 1012.9 hPa ENE 1.4 km/h 6.4 km/h 90% 0.0 mm 58 W/m2
07:58 21.2 °C 19.1 °C 1012.9 hPa SE 1.4 km/h 3.2 km/h 88% 0.0 mm 40 W/m2
08:03 21.2 °C 19.3 °C 1012.9 hPa Calm     89% 0.0 mm 30 W/m2
08:08 21.1 °C 19.4 °C 1012.9 hPa Calm   4.8 km/h 90% 0.0 mm 28 W/m2
08:13 20.9 °C 19.4 °C 1012.9 hPa South 3.2 km/h 3.2 km/h 91% 0.0 mm 30 W/m2
08:18 20.8 °C 19.5 °C 1012.9 hPa SSE 1.4 km/h 3.2 km/h 92% 0.0 mm 32 W/m2
08:23 20.7 °C 19.4 °C 1012.9 hPa SSE 3.2 km/h 3.2 km/h 92% 0.0 mm 32 W/m2
08:28 20.7 °C 19.4 °C 1012.9 hPa Calm     92% 0.0 mm 32 W/m2
08:33 20.6 °C 19.4 °C 1012.9 hPa SW 1.4 km/h 3.2 km/h 93% 0.0 mm 35 W/m2
08:38 20.5 °C 19.3 °C 1012.9 hPa WSW 1.4 km/h 6.4 km/h 93% 0.0 mm 39 W/m2
08:48 20.4 °C 19.4 °C 1012.9 hPa Calm   4.8 km/h 94% 0.0 mm 39 W/m2
08:53 20.4 °C 19.4 °C 1012.9 hPa SW 1.4 km/h 3.2 km/h 94% 0.0 mm 37 W/m2
08:58 20.4 °C 19.4 °C 1012.9 hPa Calm   1.6 km/h 94% 0.0 mm 37 W/m2
09:04 20.4 °C 19.4 °C 1012.9 hPa Calm   4.8 km/h 94% 0.0 mm 46 W/m2
09:09 20.4 °C 19.4 °C 1013.2 hPa SSW 1.4 km/h 1.6 km/h 94% 0.0 mm 60 W/m2
09:14 20.4 °C 19.4 °C 1013.2 hPa Calm   4.8 km/h 94% 0.0 mm 63 W/m2
09:19 20.5 °C 19.5 °C 1013.2 hPa Calm     94% 0.0 mm 63 W/m2
09:24 20.5 °C 19.5 °C 1013.2 hPa Calm     94% 0.0 mm 60 W/m2
09:29 20.5 °C 19.5 °C 1013.5 hPa SSW 1.4 km/h 3.2 km/h 94% 0.0 mm 62 W/m2
09:34 20.4 °C 19.4 °C 1013.5 hPa NW 1.4 km/h 3.2 km/h 94% 0.0 mm 69 W/m2
09:39 20.6 °C 19.4 °C 1013.5 hPa West 3.2 km/h 6.4 km/h 93% 0.0 mm 83 W/m2
09:44 20.8 °C 19.5 °C 1013.5 hPa WNW 3.2 km/h 6.4 km/h 92% 0.0 mm 107 W/m2
09:49 21.1 °C 19.6 °C 1013.5 hPa WNW 3.2 km/h 4.8 km/h 91% 0.0 mm 132 W/m2
09:54 21.3 °C 19.6 °C 1013.5 hPa WSW 1.4 km/h 6.4 km/h 90% 0.0 mm 148 W/m2
09:59 21.6 °C 19.7 °C 1013.5 hPa West 1.4 km/h 9.7 km/h 89% 0.0 mm 158 W/m2
10:04 21.7 °C 19.8 °C 1013.5 hPa West 4.7 km/h 4.8 km/h 89% 0.0 mm 165 W/m2
10:09 21.9 °C 20 °C 1013.5 hPa WSW 1.4 km/h 9.7 km/h 89% 0.0 mm 179 W/m2
10:14 22 °C 19.9 °C 1013.5 hPa Calm   3.2 km/h 88% 0.0 mm 213 W/m2
10:19 22.2 °C 20.3 °C 1013.5 hPa East 1.4 km/h 3.2 km/h 89% 0.0 mm 250 W/m2
10:24 22.4 °C 20.5 °C 1013.5 hPa ESE 1.4 km/h 3.2 km/h 89% 0.0 mm 313 W/m2
10:29 22.8 °C 20.7 °C 1013.5 hPa Calm   1.6 km/h 88% 0.0 mm 554 W/m2
10:34 23.3 °C 20.6 °C 1013.5 hPa Calm   4.8 km/h 85% 0.0 mm 357 W/m2
10:40 23.8 °C 20.9 °C 1013.5 hPa NW 1.4 km/h 1.6 km/h 84% 0.0 mm 371 W/m2
10:45 24.2 °C 20.7 °C 1013.5 hPa North 1.4 km/h 3.2 km/h 81% 0.0 mm 768 W/m2
10:50 24.6 °C 20.5 °C 1013.5 hPa Calm   3.2 km/h 78% 0.0 mm 487 W/m2
10:55 24.8 °C 20.1 °C 1013.5 hPa North 1.4 km/h 1.6 km/h 75% 0.0 mm 325 W/m2
11:00 25.1 °C 21.2 °C 1013.5 hPa Calm     79% 0.0 mm 506 W/m2
11:05 25.3 °C 20.8 °C 1013.5 hPa Calm   6.4 km/h 76% 0.0 mm 677 W/m2
11:10 25.6 °C 20.8 °C 1013.5 hPa Calm   4.8 km/h 75% 0.0 mm 624 W/m2
11:15 25.9 °C 20.9 °C 1013.5 hPa Calm   4.8 km/h 74% 0.0 mm 622 W/m2
11:20 26.2 °C 20.7 °C 1013.5 hPa Calm   3.2 km/h 72% 0.0 mm 431 W/m2
11:25 26.2 °C 20.3 °C 1013.5 hPa ENE 1.4 km/h 6.4 km/h 70% 0.0 mm 684 W/m2
11:30 26.4 °C 21.2 °C 1013.5 hPa SE 3.2 km/h 3.2 km/h 73% 0.0 mm 617 W/m2
11:35 26.7 °C 20.5 °C 1013.5 hPa NE 3.2 km/h 4.8 km/h 69% 0.0 mm 700 W/m2
11:40 26.8 °C 20.6 °C 1013.5 hPa Calm   3.2 km/h 69% 0.0 mm 737 W/m2
11:45 27.1 °C 20.7 °C 1013.5 hPa Calm   4.8 km/h 68% 0.0 mm 780 W/m2
11:50 27.4 °C 20.7 °C 1013.5 hPa Calm   3.2 km/h 67% 0.0 mm 872 W/m2
11:55 27.8 °C 21.6 °C 1013.5 hPa East 1.4 km/h 3.2 km/h 69% 0.0 mm 721 W/m2
12:01 27.9 °C 21 °C 1013.5 hPa Calm   1.6 km/h 66% 0.0 mm 316 W/m2
12:06 27.9 °C 21 °C 1013.5 hPa ESE 3.2 km/h 3.2 km/h 66% 0.0 mm 327 W/m2
12:11 28.2 °C 21 °C 1013.5 hPa WSW 1.4 km/h 3.2 km/h 65% 0.0 mm 315 W/m2
12:16 28.3 °C 20.6 °C 1013.5 hPa ESE 1.4 km/h 4.8 km/h 63% 0.0 mm 287 W/m2
12:21 28.5 °C 19.7 °C 1013.5 hPa WSW 3.2 km/h 9.7 km/h 59% 0.0 mm 288 W/m2
12:26 28.6 °C 20.3 °C 1013.5 hPa ENE 1.4 km/h 4.8 km/h 61% 0.0 mm 346 W/m2
12:31 28.6 °C 19.2 °C 1013.5 hPa WNW 4.7 km/h 12.9 km/h 57% 0.0 mm 294 W/m2
12:36 28.6 °C 19.5 °C 1013.5 hPa SW 3.2 km/h 4.8 km/h 58% 0.0 mm 870 W/m2
12:41 28.8 °C 19.4 °C 1013.5 hPa Calm   12.9 km/h 57% 0.0 mm 831 W/m2
12:46 29.3 °C 19.9 °C 1013.5 hPa NE 3.2 km/h 6.4 km/h 57% 0.0 mm 904 W/m2
12:51 29.6 °C 19.3 °C 1013.5 hPa SW 4.7 km/h 11.3 km/h 54% 0.0 mm 932 W/m2
12:56 29.6 °C 19.3 °C 1013.5 hPa West 11.1 km/h 11.3 km/h 54% 0.0 mm 914 W/m2
13:01 29.7 °C 19.4 °C 1013.2 hPa NNE 1.4 km/h 6.4 km/h 54% 0.0 mm 311 W/m2
13:06 29.5 °C 19.2 °C 1013.2 hPa NW 3.2 km/h 11.3 km/h 54% 0.0 mm 963 W/m2
13:11 29.6 °C 19.3 °C 1013.2 hPa NW 1.4 km/h 6.4 km/h 54% 0.0 mm 870 W/m2
13:16 29.7 °C 20 °C 1013.2 hPa SW 4.7 km/h 9.7 km/h 56% 0.0 mm 798 W/m2
13:21 29.8 °C 18.6 °C 1013.2 hPa WNW 6.4 km/h 8 km/h 51% 0.0 mm 791 W/m2
13:26 29.8 °C 18.3 °C 1013.2 hPa WNW 1.4 km/h 6.4 km/h 50% 0.0 mm 868 W/m2
13:31 30 °C 18.4 °C 1012.9 hPa West 1.4 km/h 8 km/h 50% 0.0 mm 881 W/m2
13:36 30.2 °C 18.3 °C 1012.9 hPa West 9.7 km/h 9.7 km/h 49% 0.0 mm 608 W/m2
13:41 30.3 °C 18.7 °C 1012.9 hPa SE 1.4 km/h 9.7 km/h 50% 0.0 mm 909 W/m2
13:46 30.6 °C 19 °C 1012.9 hPa West 3.2 km/h 9.7 km/h 50% 0.0 mm 911 W/m2
13:51 30.6 °C 19 °C 1012.9 hPa West 6.4 km/h 6.4 km/h 50% 0.0 mm 831 W/m2
13:56 30.8 °C 18.5 °C 1012.9 hPa East 4.7 km/h 9.7 km/h 48% 0.0 mm 812 W/m2
14:01 31.2 °C 18.2 °C 1012.9 hPa ESE 4.7 km/h 6.4 km/h 46% 0.0 mm 837 W/m2
14:06 31.4 °C 19.1 °C 1012.9 hPa WSW 4.7 km/h 6.4 km/h 48% 0.0 mm 819 W/m2
14:11 31.4 °C 18.4 °C 1012.5 hPa NW 3.2 km/h 4.8 km/h 46% 0.0 mm 817 W/m2
14:16 31.4 °C 18.7 °C 1012.5 hPa West 4.7 km/h 4.8 km/h 47% 0.0 mm 817 W/m2
14:21 31.5 °C 18.8 °C 1012.5 hPa ENE 1.4 km/h 3.2 km/h 47% 0.0 mm 816 W/m2
14:32 31.6 °C 19.2 °C 1012.2 hPa North 1.4 km/h 3.2 km/h 48% 0.0 mm 802 W/m2
14:37 31.8 °C 19.4 °C 1012.2 hPa WSW 6.4 km/h 14.5 km/h 48% 0.0 mm 805 W/m2
14:42 32 °C 19.6 °C 1012.2 hPa WNW 3.2 km/h 8 km/h 48% 0.0 mm 803 W/m2
14:47 32.3 °C 19.9 °C 1012.2 hPa NW 6.4 km/h 11.3 km/h 48% 0.0 mm 802 W/m2
14:57 32.4 °C 19.3 °C 1012.2 hPa SSW 1.4 km/h 3.2 km/h 46% 0.0 mm 793 W/m2
15:02 32.6 °C 19.8 °C 1012.2 hPa WNW 3.2 km/h 11.3 km/h 47% 0.0 mm 779 W/m2
15:07 32.6 °C 19.5 °C 1011.9 hPa SW 3.2 km/h 4.8 km/h 46% 0.0 mm 798 W/m2
15:12 32.6 °C 19.5 °C 1011.9 hPa North 7.9 km/h 8 km/h 46% 0.0 mm 775 W/m2
15:17 32.6 °C 19.1 °C 1012.2 hPa WSW 7.9 km/h 11.3 km/h 45% 0.0 mm 766 W/m2
15:22 32.4 °C 19.3 °C 1011.9 hPa NE 3.2 km/h 3.2 km/h 46% 0.0 mm 789 W/m2
15:27 32.7 °C 19.6 °C 1011.9 hPa WNW 7.9 km/h 16.1 km/h 46% 0.0 mm 789 W/m2
15:32 32.7 °C 19.6 °C 1011.9 hPa WNW 7.9 km/h 14.5 km/h 46% 0.0 mm 772 W/m2
15:37 32.6 °C 19.8 °C 1011.9 hPa WSW 1.4 km/h 16.1 km/h 47% 0.0 mm 817 W/m2
15:42 32.8 °C 19.3 °C 1011.9 hPa NE 1.4 km/h 4.8 km/h 45% 0.0 mm 817 W/m2
15:47 32.8 °C 19.7 °C 1011.9 hPa WSW 1.4 km/h 9.7 km/h 46% 0.0 mm 816 W/m2
15:52 33.2 °C 19.3 °C 1011.5 hPa North 20.9 km/h 20.9 km/h 44% 0.0 mm 726 W/m2
15:57 33.2 °C 19.3 °C 1011.9 hPa SW 3.2 km/h 14.5 km/h 44% 0.0 mm 555 W/m2
16:02 32.9 °C 19.7 °C 1011.5 hPa WSW 3.2 km/h 3.2 km/h 46% 0.0 mm 712 W/m2
16:07 33.2 °C 19.7 °C 1011.5 hPa WNW 3.2 km/h 6.4 km/h 45% 0.0 mm 747 W/m2
16:12 33.2 °C 18.9 °C 1011.5 hPa NW 7.9 km/h 9.7 km/h 43% 0.0 mm 234 W/m2
16:17 32.9 °C 18.3 °C 1011.5 hPa WNW 1.4 km/h 6.4 km/h 42% 0.0 mm 390 W/m2
16:22 33 °C 18.4 °C 1011.5 hPa West 6.4 km/h 9.7 km/h 42% 0.0 mm 700 W/m2
16:27 33.2 °C 17.8 °C 1011.5 hPa West 3.2 km/h 11.3 km/h 40% 0.0 mm 686 W/m2
16:32 33.6 °C 17.7 °C 1011.5 hPa West 9.7 km/h 9.7 km/h 39% 0.0 mm 782 W/m2
16:37 33.6 °C 17.7 °C 1011.5 hPa West 11.1 km/h 11.3 km/h 39% 0.0 mm 353 W/m2
16:42 33.3 °C 17.9 °C 1011.5 hPa West 9.7 km/h 9.7 km/h 40% 0.0 mm 341 W/m2
16:47 33.3 °C 17.9 °C 1011.5 hPa WNW 11.1 km/h 14.5 km/h 40% 0.0 mm 626 W/m2
16:52 33.3 °C 17.9 °C 1011.9 hPa West 9.7 km/h 14.5 km/h 40% 0.0 mm 601 W/m2
16:57 33.2 °C 18.2 °C 1011.5 hPa WSW 11.1 km/h 11.3 km/h 41% 0.0 mm 450 W/m2
17:02 33.1 °C 18.1 °C 1011.9 hPa NW 13 km/h 14.5 km/h 41% 0.0 mm 645 W/m2
17:07 33 °C 17.2 °C 1011.5 hPa NW 6.4 km/h 17.7 km/h 39% 0.0 mm 742 W/m2
17:12 33.1 °C 17.7 °C 1011.9 hPa West 16.3 km/h 16.1 km/h 40% 0.0 mm 596 W/m2
17:17 33.3 °C 17.5 °C 1011.9 hPa WSW 17.7 km/h 17.7 km/h 39% 0.0 mm 715 W/m2
17:22 33.4 °C 17.6 °C 1011.9 hPa West 13 km/h 16.1 km/h 39% 0.0 mm 552 W/m2
17:27 33.1 °C 17.3 °C 1011.9 hPa NNW 4.7 km/h 16.1 km/h 39% 0.0 mm 622 W/m2
17:33 32.9 °C 17.9 °C 1011.9 hPa West 16.3 km/h 19.3 km/h 41% 0.0 mm 540 W/m2
17:38 32.4 °C 18.2 °C 1011.9 hPa WSW 13 km/h 19.3 km/h 43% 0.0 mm 436 W/m2
17:43 32.1 °C 18.3 °C 1011.9 hPa NW 14.3 km/h 17.7 km/h 44% 0.0 mm 316 W/m2
17:48 31.6 °C 17.9 °C 1011.9 hPa WNW 11.1 km/h 12.9 km/h 44% 0.0 mm 325 W/m2
17:53 31.2 °C 18.2 °C 1011.9 hPa West 9.7 km/h 24.1 km/h 46% 0.0 mm 186 W/m2
17:58 30.9 °C 17.9 °C 1011.9 hPa NW 4.7 km/h 11.3 km/h 46% 0.0 mm 163 W/m2
18:03 30.7 °C 18.1 °C 1011.9 hPa WNW 14.3 km/h 17.7 km/h 47% 0.0 mm 192 W/m2
18:08 30.3 °C 18.1 °C 1011.9 hPa NNW 9.7 km/h 20.9 km/h 48% 0.0 mm 151 W/m2
18:13 30 °C 17.8 °C 1011.9 hPa West 13 km/h 12.9 km/h 48% 0.0 mm 134 W/m2
18:18 29.8 °C 17.6 °C 1011.9 hPa WNW 17.7 km/h 17.7 km/h 48% 0.0 mm 141 W/m2
18:23 29.7 °C 17.5 °C 1011.9 hPa West 9.7 km/h 12.9 km/h 48% 0.0 mm 155 W/m2
18:28 29.7 °C 17.5 °C 1011.9 hPa NW 13 km/h 19.3 km/h 48% 0.0 mm 320 W/m2
18:33 29.9 °C 17.7 °C 1011.9 hPa West 13 km/h 16.1 km/h 48% 0.0 mm 459 W/m2
18:38 30.4 °C 18.2 °C 1011.9 hPa WNW 7.9 km/h 19.3 km/h 48% 0.0 mm 464 W/m2
18:43 30.4 °C 17.8 °C 1011.9 hPa West 16.3 km/h 22.5 km/h 47% 0.0 mm 244 W/m2
18:48 30.1 °C 17.9 °C 1011.5 hPa WSW 13 km/h 12.9 km/h 48% 0.0 mm 262 W/m2
18:53 30.1 °C 17.9 °C 1011.5 hPa WSW 14.3 km/h 19.3 km/h 48% 0.0 mm 403 W/m2
18:58 30.3 °C 17.7 °C 1011.5 hPa WNW 6.4 km/h 12.9 km/h 47% 0.0 mm 359 W/m2
19:03 30.5 °C 17.9 °C 1011.5 hPa WSW 19.5 km/h 19.3 km/h 47% 0.0 mm 339 W/m2
19:08 30.4 °C 17.8 °C 1011.5 hPa WNW 7.9 km/h 12.9 km/h 47% 0.0 mm 313 W/m2
19:13 30.3 °C 18.1 °C 1011.5 hPa NW 6.4 km/h 16.1 km/h 48% 0.0 mm 250 W/m2
19:18 30.1 °C 17.9 °C 1011.5 hPa WNW 11.1 km/h 17.7 km/h 48% 0.0 mm 197 W/m2
19:23 29.8 °C 17.9 °C 1011.5 hPa NW 7.9 km/h 16.1 km/h 49% 0.0 mm 165 W/m2
19:28 29.6 °C 17.8 °C 1011.5 hPa WNW 11.1 km/h 19.3 km/h 49% 0.0 mm 90 W/m2
19:33 29.2 °C 17.7 °C 1011.5 hPa NW 6.4 km/h 14.5 km/h 50% 0.0 mm 84 W/m2
19:38 28.9 °C 17.7 °C 1011.5 hPa WSW 3.2 km/h 12.9 km/h 51% 0.0 mm 109 W/m2
19:43 28.7 °C 17.6 °C 1011.5 hPa West 11.1 km/h 17.7 km/h 51% 0.0 mm 49 W/m2
19:48 28.4 °C 17.6 °C 1011.5 hPa WNW 6.4 km/h 11.3 km/h 52% 0.0 mm 49 W/m2
19:53 28.2 °C 17.4 °C 1011.5 hPa SW 4.7 km/h 17.7 km/h 52% 0.0 mm 49 W/m2
19:58 28 °C 16.9 °C 1011.9 hPa West 4.7 km/h 6.4 km/h 51% 0.0 mm 49 W/m2
20:03 27.8 °C 16.1 °C 1011.9 hPa West 3.2 km/h 9.7 km/h 49% 0.0 mm 46 W/m2
20:08 27.7 °C 16.3 °C 1011.9 hPa WNW 3.2 km/h 4.8 km/h 50% 0.0 mm 39 W/m2
20:13 27.5 °C 16.5 °C 1011.9 hPa NW 3.2 km/h 6.4 km/h 51% 0.0 mm 42 W/m2
20:18 27.4 °C 16.7 °C 1011.9 hPa SSW 1.4 km/h 4.8 km/h 52% 0.0 mm 40 W/m2
20:23 27.2 °C 16.5 °C 1011.9 hPa SW 1.4 km/h 1.6 km/h 52% 0.0 mm 19 W/m2
20:28 27.2 °C 17.1 °C 1012.2 hPa Calm   1.6 km/h 54% 0.0 mm 12 W/m2
20:33 26.9 °C 17.1 °C 1012.2 hPa WNW 3.2 km/h 11.3 km/h 55% 0.0 mm 7 W/m2
20:38 26.8 °C 17.3 °C 1012.2 hPa WNW 7.9 km/h 12.9 km/h 56% 0.0 mm 7 W/m2
20:44 26.7 °C 17.5 °C 1012.5 hPa West 6.4 km/h 14.5 km/h 57% 0.0 mm 5 W/m2
20:49 26.6 °C 17.4 °C 1012.5 hPa NW 3.2 km/h 12.9 km/h 57% 0.0 mm 0 W/m2
20:54 26.6 °C 17.7 °C 1012.5 hPa West 4.7 km/h 9.7 km/h 58% 0.0 mm 0 W/m2
20:59 26.4 °C 17.7 °C 1012.5 hPa West 1.4 km/h 9.7 km/h 59% 0.0 mm 0 W/m2
21:04 26.3 °C 17.6 °C 1012.5 hPa WSW 4.7 km/h 11.3 km/h 59% 0.0 mm 0 W/m2
21:09 26.2 °C 17.8 °C 1012.2 hPa NW 3.2 km/h 4.8 km/h 60% 0.0 mm 0 W/m2
21:14 26.1 °C 18 °C 1011.9 hPa WNW 3.2 km/h 6.4 km/h 61% 0.0 mm 0 W/m2
21:19 26.1 °C 18 °C 1011.9 hPa West 4.7 km/h 6.4 km/h 61% 0.0 mm 0 W/m2
21:24 26.1 °C 18 °C 1012.2 hPa WSW 11.1 km/h 12.9 km/h 61% 0.0 mm 0 W/m2
21:29 26.1 °C 17.7 °C 1012.2 hPa WNW 7.9 km/h 12.9 km/h 60% 0.0 mm 0 W/m2
21:34 26 °C 17.6 °C 1012.2 hPa West 4.7 km/h 12.9 km/h 60% 0.0 mm 0 W/m2
21:39 25.9 °C 17.8 °C 1012.5 hPa WNW 7.9 km/h 9.7 km/h 61% 0.0 mm 0 W/m2
21:44 25.8 °C 17.7 °C 1012.5 hPa WSW 11.1 km/h 12.9 km/h 61% 0.0 mm 0 W/m2
21:49 25.7 °C 17.9 °C 1012.5 hPa West 9.7 km/h 11.3 km/h 62% 0.0 mm 0 W/m2
21:54 25.6 °C 17.8 °C 1012.5 hPa West 3.2 km/h 8 km/h 62% 0.0 mm 0 W/m2
21:59 25.6 °C 18 °C 1012.5 hPa West 6.4 km/h 12.9 km/h 63% 0.0 mm 0 W/m2
22:04 25.4 °C 17.8 °C 1012.5 hPa WNW 3.2 km/h 8 km/h 63% 0.0 mm 0 W/m2
22:09 25.4 °C 17.8 °C 1012.5 hPa NW 4.7 km/h 9.7 km/h 63% 0.0 mm 0 W/m2
22:14 25.3 °C 17.7 °C 1012.5 hPa NW 6.4 km/h 12.9 km/h 63% 0.0 mm 0 W/m2
22:19 25.3 °C 17.7 °C 1012.5 hPa West 6.4 km/h 12.9 km/h 63% 0.0 mm 0 W/m2
22:24 25.2 °C 17.4 °C 1012.2 hPa West 4.7 km/h 11.3 km/h 62% 0.0 mm 0 W/m2
22:29 25.1 °C 17.3 °C 1012.2 hPa West 11.1 km/h 11.3 km/h 62% 0.0 mm 0 W/m2
22:35 25.1 °C 17.3 °C 1012.2 hPa West 4.7 km/h 9.7 km/h 62% 0.0 mm 0 W/m2
22:40 24.9 °C 17.1 °C 1012.5 hPa West 3.2 km/h 11.3 km/h 62% 0.0 mm 0 W/m2
22:45 24.8 °C 17 °C 1012.5 hPa West 9.7 km/h 9.7 km/h 62% 0.0 mm 0 W/m2
22:50 24.8 °C 17 °C 1012.5 hPa West 9.7 km/h 9.7 km/h 62% 0.0 mm 0 W/m2
22:55 24.7 °C 16.9 °C 1012.5 hPa NW 4.7 km/h 11.3 km/h 62% 0.0 mm 0 W/m2
23:00 24.6 °C 16.8 °C 1012.5 hPa WNW 3.2 km/h 11.3 km/h 62% 0.0 mm 0 W/m2
23:05 24.5 °C 17 °C 1012.5 hPa WNW 6.4 km/h 14.5 km/h 63% 0.0 mm 0 W/m2
23:10 24.4 °C 16.9 °C 1012.5 hPa West 6.4 km/h 9.7 km/h 63% 0.0 mm 0 W/m2
23:15 24.3 °C 16.8 °C 1012.5 hPa West 9.7 km/h 11.3 km/h 63% 0.0 mm 0 W/m2
23:20 24.2 °C 16.7 °C 1012.2 hPa West 11.1 km/h 11.3 km/h 63% 0.0 mm 0 W/m2
23:25 24.1 °C 16.9 °C 1012.2 hPa West 4.7 km/h 6.4 km/h 64% 0.0 mm 0 W/m2
23:30 23.9 °C 16.7 °C 1012.2 hPa WNW 6.4 km/h 9.7 km/h 64% 0.0 mm 0 W/m2
23:35 23.9 °C 16.7 °C 1012.2 hPa WSW 13 km/h 12.9 km/h 64% 0.0 mm 0 W/m2
23:40 23.8 °C 16.8 °C 1012.5 hPa WNW 11.1 km/h 12.9 km/h 65% 0.0 mm 0 W/m2
23:45 23.9 °C 16.9 °C 1012.5 hPa West 9.7 km/h 14.5 km/h 65% 0.0 mm 0 W/m2
23:50 23.9 °C 16.9 °C 1012.5 hPa WSW 11.1 km/h 11.3 km/h 65% 0.0 mm 0 W/m2
23:55 23.8 °C 16.8 °C 1012.5 hPa West 3.2 km/h 16.1 km/h 65% 0.0 mm 0 W/m2
Juneau County Weather
Compliments of Weather Underground - 4 mb